createdAt,value
2023-03-17T00:00:48.353Z,96.07
2023-03-17T00:01:47.548Z,95.55
2023-03-17T00:02:47.550Z,96.07
2023-03-17T00:03:47.566Z,96.07
2023-03-17T00:04:47.534Z,95.92
2023-03-17T00:05:47.521Z,95.97
2023-03-17T00:06:47.520Z,95.97
2023-03-17T00:07:47.511Z,96.17
2023-03-17T00:08:47.506Z,95.97
2023-03-17T00:09:47.509Z,95.76
2023-03-17T00:10:47.471Z,96.17
2023-03-17T00:11:47.446Z,96.07
2023-03-17T00:12:47.466Z,96.95
2023-03-17T00:13:47.476Z,96.70
2023-03-17T00:14:47.448Z,96.17
2023-03-17T00:15:47.507Z,95.86
2023-03-17T00:16:47.431Z,96.17
2023-03-17T00:17:47.800Z,96.33
2023-03-17T00:18:47.399Z,96.53
2023-03-17T00:19:47.416Z,96.38
2023-03-17T00:20:47.420Z,96.53
2023-03-17T00:21:47.372Z,96.59
2023-03-17T00:22:47.389Z,96.59
2023-03-17T00:23:47.382Z,96.53
2023-03-17T00:24:47.361Z,96.91
2023-03-17T00:25:47.352Z,96.49
2023-03-17T00:26:47.348Z,96.74
2023-03-17T00:27:47.340Z,96.49
2023-03-17T00:28:47.322Z,96.84
2023-03-17T00:29:47.326Z,96.43
2023-03-17T00:30:47.316Z,96.95
2023-03-17T00:31:47.296Z,97.16
2023-03-17T00:32:47.268Z,97.05
2023-03-17T00:33:47.294Z,96.91
2023-03-17T00:34:47.298Z,97.58
2023-03-17T00:35:47.307Z,96.95
2023-03-17T00:36:47.265Z,96.95
2023-03-17T00:37:47.309Z,96.64
2023-03-17T00:38:47.289Z,97.01
2023-03-17T00:39:47.257Z,96.95
2023-03-17T00:40:47.221Z,97.32
2023-03-17T00:41:47.828Z,97.47
2023-03-17T00:42:47.204Z,97.53
2023-03-17T00:43:47.216Z,97.47
2023-03-17T00:44:47.192Z,97.64
2023-03-17T00:45:47.188Z,97.64
2023-03-17T00:46:47.259Z,96.91
2023-03-17T00:47:47.196Z,97.11
2023-03-17T00:48:47.197Z,97.01
2023-03-17T00:49:47.151Z,97.53
2023-03-17T00:50:47.179Z,96.91
2023-03-17T00:51:47.154Z,97.32
2023-03-17T00:52:47.150Z,97.32
2023-03-17T00:53:47.173Z,97.37
2023-03-17T00:54:47.160Z,96.80
2023-03-17T00:55:47.112Z,97.16
2023-03-17T00:56:47.114Z,97.27
2023-03-17T00:57:47.119Z,97.05
2023-03-17T00:58:47.085Z,96.95
2023-03-17T00:59:47.106Z,96.95
2023-03-17T01:00:47.088Z,97.10
2023-03-17T01:01:47.106Z,97.27
2023-03-17T01:02:47.097Z,97.11
2023-03-17T01:03:47.074Z,97.16
2023-03-17T01:04:52.885Z,97.68
2023-03-17T01:05:49.049Z,97.32
2023-03-17T01:06:47.061Z,97.47
2023-03-17T01:07:48.043Z,97.37
2023-03-17T01:08:47.071Z,97.58
2023-03-17T01:09:47.035Z,97.22
2023-03-17T01:11:19.090Z,97.43
2023-03-17T01:11:47.151Z,97.58
2023-03-17T01:12:47.004Z,97.22
2023-03-17T01:13:47.010Z,97.01
2023-03-17T01:14:47.008Z,96.91
2023-03-17T01:15:46.982Z,97.05
2023-03-17T01:16:46.969Z,97.11
2023-03-17T01:17:46.953Z,97.11
2023-03-17T01:18:47.015Z,97.01
2023-03-17T01:19:46.970Z,97.32
2023-03-17T01:20:46.950Z,96.74
2023-03-17T01:21:46.943Z,97.47
2023-03-17T01:22:46.903Z,97.52
2023-03-17T01:23:46.943Z,97.16
2023-03-17T01:24:46.943Z,97.00
2023-03-17T01:25:46.906Z,97.62
2023-03-17T01:26:46.895Z,97.47
2023-03-17T01:27:46.895Z,97.58
2023-03-17T01:28:46.868Z,97.47
2023-03-17T01:29:46.873Z,97.47
2023-03-17T01:30:46.907Z,97.68
2023-03-17T01:31:46.897Z,97.78
2023-03-17T01:32:46.849Z,98.41
2023-03-17T01:33:46.836Z,98.21
2023-03-17T01:34:46.860Z,98.21
2023-03-17T01:35:46.888Z,97.89
2023-03-17T01:36:46.881Z,97.89
2023-03-17T01:37:46.795Z,97.47
2023-03-17T01:38:46.818Z,97.47
2023-03-17T01:39:46.786Z,97.37
2023-03-17T01:40:46.788Z,97.27
2023-03-17T01:41:46.820Z,97.37
2023-03-17T01:42:46.805Z,97.64
2023-03-17T01:43:46.737Z,97.47
2023-03-17T01:44:46.742Z,97.37
2023-03-17T01:45:46.777Z,97.47
2023-03-17T01:46:46.796Z,97.64
2023-03-17T01:47:46.781Z,97.68
2023-03-17T01:48:46.733Z,97.58
2023-03-17T01:49:46.711Z,97.68
2023-03-17T01:50:46.751Z,97.78
2023-03-17T01:51:46.717Z,97.58
2023-03-17T01:52:46.704Z,97.47
2023-03-17T01:53:46.674Z,97.47
2023-03-17T01:54:46.718Z,97.99
2023-03-17T01:55:46.658Z,97.68
2023-03-17T01:56:47.689Z,97.99
2023-03-17T01:57:46.678Z,98.10
2023-03-17T01:58:46.641Z,98.41
2023-03-17T01:59:46.688Z,97.89
2023-03-17T02:00:46.716Z,98.05
2023-03-17T02:01:46.636Z,98.72
2023-03-17T02:02:46.662Z,98.16
2023-03-17T02:03:46.637Z,98.37
2023-03-17T02:04:46.612Z,97.68
2023-03-17T02:05:46.601Z,97.68
2023-03-17T02:06:57.387Z,97.43
2023-03-17T02:07:48.647Z,97.32
2023-03-17T02:08:46.577Z,97.64
2023-03-17T02:09:46.587Z,98.21
2023-03-17T02:10:46.569Z,98.21
2023-03-17T02:11:46.580Z,98.26
2023-03-17T02:12:46.562Z,98.26
2023-03-17T02:13:46.533Z,98.16
2023-03-17T02:14:46.518Z,98.05
2023-03-17T02:15:46.541Z,98.05
2023-03-17T02:16:46.577Z,98.16
2023-03-17T02:17:46.516Z,98.26
2023-03-17T02:18:46.521Z,98.37
2023-03-17T02:19:47.350Z,98.05
2023-03-17T02:20:47.524Z,98.32
2023-03-17T02:21:46.491Z,97.38
2023-03-17T02:22:46.469Z,97.07
2023-03-17T02:23:46.475Z,97.49
2023-03-17T02:24:46.441Z,97.53
2023-03-17T02:25:46.470Z,97.59
2023-03-17T02:26:46.442Z,97.17
2023-03-17T02:27:46.460Z,97.28
2023-03-17T02:28:46.436Z,97.22
2023-03-17T02:29:46.525Z,97.32
2023-03-17T02:30:46.454Z,97.43
2023-03-17T02:31:46.404Z,97.74
2023-03-17T02:32:46.406Z,97.49
2023-03-17T02:33:46.406Z,97.11
2023-03-17T02:34:46.411Z,97.01
2023-03-17T02:35:46.402Z,97.11
2023-03-17T02:36:46.400Z,97.64
2023-03-17T02:37:46.367Z,97.43
2023-03-17T02:38:46.378Z,97.43
2023-03-17T02:39:46.341Z,97.11
2023-03-17T02:40:46.373Z,97.11
2023-03-17T02:41:46.345Z,97.17
2023-03-17T02:42:46.311Z,97.32
2023-03-17T02:43:46.316Z,97.38
2023-03-17T02:44:46.286Z,97.43
2023-03-17T02:45:46.392Z,97.53
2023-03-17T02:46:46.300Z,97.43
2023-03-17T02:47:46.283Z,97.01
2023-03-17T02:48:46.276Z,97.32
2023-03-17T02:49:46.259Z,97.53
2023-03-17T02:50:46.274Z,97.43
2023-03-17T02:51:46.261Z,97.11
2023-03-17T02:52:46.247Z,97.53
2023-03-17T02:53:46.242Z,97.43
2023-03-17T02:54:46.295Z,97.27
2023-03-17T02:55:46.309Z,97.01
2023-03-17T02:56:46.253Z,97.32
2023-03-17T02:57:46.210Z,97.27
2023-03-17T02:58:46.213Z,97.68
2023-03-17T02:59:46.185Z,97.68
2023-03-17T03:00:46.230Z,97.58
2023-03-17T03:01:46.224Z,98.10
2023-03-17T03:02:46.209Z,98.58
2023-03-17T03:03:46.168Z,98.05
2023-03-17T03:04:46.155Z,98.37
2023-03-17T03:05:46.164Z,98.21
2023-03-17T03:06:46.161Z,97.58
2023-03-17T03:07:46.185Z,97.58
2023-03-17T03:08:46.118Z,97.58
2023-03-17T03:09:46.114Z,97.99
2023-03-17T03:10:46.121Z,98.10
2023-03-17T03:11:46.133Z,98.10
2023-03-17T03:12:46.103Z,97.62
2023-03-17T03:13:46.072Z,97.62
2023-03-17T03:14:46.098Z,97.94
2023-03-17T03:15:46.171Z,97.72
2023-03-17T03:16:46.061Z,97.41
2023-03-17T03:17:46.080Z,97.62
2023-03-17T03:18:46.046Z,98.46
2023-03-17T03:19:46.041Z,97.83
2023-03-17T03:20:46.047Z,97.72
2023-03-17T03:21:46.072Z,98.39
2023-03-17T03:22:46.070Z,98.35
2023-03-17T03:23:46.008Z,98.08
2023-03-17T03:24:46.014Z,98.25
2023-03-17T03:25:46.017Z,98.08
2023-03-17T03:26:46.013Z,99.08
2023-03-17T03:27:46.006Z,98.92
2023-03-17T03:28:45.995Z,99.08
2023-03-17T03:29:45.953Z,98.14
2023-03-17T03:30:47.019Z,98.39
2023-03-17T03:31:45.963Z,98.44
2023-03-17T03:32:45.992Z,98.67
2023-03-17T03:33:45.964Z,98.82
2023-03-17T03:34:45.962Z,98.92
2023-03-17T03:35:45.940Z,98.92
2023-03-17T03:36:45.974Z,99.18
2023-03-17T03:37:45.955Z,99.07
2023-03-17T03:38:46.005Z,99.02
2023-03-17T03:39:45.907Z,99.59
2023-03-17T03:40:45.888Z,99.38
2023-03-17T03:41:46.844Z,99.70
2023-03-17T03:42:45.915Z,99.49
2023-03-17T03:43:45.865Z,99.99
2023-03-17T03:44:45.890Z,99.99
2023-03-17T03:45:45.907Z,99.99
2023-03-17T03:46:45.930Z,99.71
2023-03-17T04:02:58.004Z,99.99
2023-03-17T04:03:57.861Z,99.99
2023-03-17T04:04:57.901Z,99.99
2023-03-17T04:05:57.869Z,99.99
2023-03-17T04:06:57.921Z,99.99
2023-03-17T04:07:59.053Z,99.99
2023-03-17T04:09:31.560Z,99.99
2023-03-17T04:09:59.029Z,99.99
2023-03-17T04:10:58.989Z,99.99
2023-03-17T04:11:59.616Z,99.99
2023-03-17T04:12:58.979Z,99.96
2023-03-17T04:13:59.690Z,99.99
2023-03-17T04:14:58.943Z,99.99
2023-03-17T04:15:58.955Z,99.99
2023-03-17T04:16:59.631Z,99.99
2023-03-17T04:17:58.922Z,99.99
2023-03-17T04:18:58.947Z,99.91
2023-03-17T04:19:58.923Z,99.99
2023-03-17T04:20:58.936Z,99.99
2023-03-17T04:21:58.930Z,99.99
2023-03-17T04:22:58.888Z,99.99
2023-03-17T04:23:58.876Z,99.99
2023-03-17T04:24:58.862Z,99.99
2023-03-17T04:25:59.615Z,99.99
2023-03-17T04:26:58.840Z,99.99
2023-03-17T04:27:58.834Z,99.99
2023-03-17T04:28:58.892Z,99.99
2023-03-17T04:29:58.827Z,99.99
2023-03-17T04:30:58.842Z,99.99
2023-03-17T04:31:58.844Z,99.99
2023-03-17T04:32:58.944Z,99.95
2023-03-17T04:33:58.869Z,99.99
2023-03-17T04:34:58.797Z,99.99
2023-03-17T04:35:58.820Z,99.99
2023-03-17T04:36:58.823Z,99.99
2023-03-17T04:37:58.772Z,99.99
2023-03-17T04:38:58.749Z,99.99
2023-03-17T04:39:58.784Z,99.99
2023-03-17T04:40:58.744Z,99.99
2023-03-17T04:41:58.748Z,99.99
2023-03-17T04:42:58.734Z,99.99
2023-03-17T04:43:58.790Z,99.99
2023-03-17T04:44:58.736Z,99.99
2023-03-17T04:45:58.778Z,99.99
2023-03-17T04:46:58.692Z,99.99
2023-03-17T04:47:58.704Z,99.99
2023-03-17T04:48:58.673Z,99.99
2023-03-17T04:49:58.753Z,99.99
2023-03-17T04:50:58.669Z,99.99
2023-03-17T04:51:58.662Z,99.99
2023-03-17T04:52:58.660Z,99.99
2023-03-17T04:53:58.645Z,99.99
2023-03-17T04:54:58.637Z,99.99
2023-03-17T04:55:58.649Z,99.99
2023-03-17T04:56:58.616Z,99.99
2023-03-17T04:57:58.625Z,99.99
2023-03-17T04:58:58.606Z,99.99
2023-03-17T04:59:58.594Z,99.99
2023-03-17T05:00:59.339Z,99.99
2023-03-17T05:01:58.666Z,99.99
2023-03-17T05:02:58.582Z,99.99
2023-03-17T05:03:58.556Z,99.99
2023-03-17T05:04:58.565Z,99.99
2023-03-17T05:05:58.570Z,99.99
2023-03-17T05:06:58.675Z,99.99
2023-03-17T05:07:58.579Z,99.99
2023-03-17T05:08:58.522Z,99.99
2023-03-17T05:09:58.505Z,99.99
2023-03-17T05:10:58.542Z,99.99
2023-03-17T05:11:59.147Z,99.99
2023-03-17T05:12:58.516Z,99.99
2023-03-17T05:13:58.993Z,99.99
2023-03-17T05:14:58.505Z,99.99
2023-03-17T05:15:58.502Z,99.99
2023-03-17T05:16:58.466Z,99.99
2023-03-17T05:17:58.478Z,99.99
2023-03-17T05:18:58.447Z,99.99
2023-03-17T05:19:58.457Z,99.99
2023-03-17T05:20:58.431Z,99.99
2023-03-17T05:21:58.442Z,99.99
2023-03-17T05:22:58.499Z,99.99
2023-03-17T05:23:58.442Z,99.99
2023-03-17T05:24:58.389Z,99.99
2023-03-17T05:25:58.391Z,99.99
2023-03-17T05:26:58.429Z,99.99
2023-03-17T05:27:58.488Z,99.99
2023-03-17T05:28:58.426Z,99.99
2023-03-17T05:29:58.358Z,99.99
2023-03-17T05:30:58.400Z,99.99
2023-03-17T05:31:58.367Z,99.99
2023-03-17T05:32:58.373Z,99.99
2023-03-17T05:33:58.401Z,99.99
2023-03-17T05:34:58.325Z,99.99
2023-03-17T05:35:58.332Z,99.99
2023-03-17T05:36:58.338Z,99.99
2023-03-17T05:37:59.212Z,99.99
2023-03-17T05:38:58.300Z,99.99
2023-03-17T05:39:58.298Z,99.99
2023-03-17T05:40:58.289Z,99.99
2023-03-17T05:41:58.308Z,99.99
2023-03-17T05:42:58.303Z,99.99
2023-03-17T05:43:59.146Z,99.99
2023-03-17T05:45:00.491Z,99.99
2023-03-17T05:45:58.356Z,99.99
2023-03-17T05:46:59.210Z,99.99
2023-03-17T05:47:58.245Z,99.99
2023-03-17T05:48:58.280Z,99.99
2023-03-17T05:49:59.187Z,99.99
2023-03-17T05:50:58.269Z,99.80
2023-03-17T05:51:58.245Z,99.91
2023-03-17T05:52:58.254Z,99.80
2023-03-17T05:53:58.432Z,99.99
2023-03-17T05:54:58.967Z,99.99
2023-03-17T05:55:58.222Z,99.99
2023-03-17T05:56:58.225Z,99.99
2023-03-17T05:57:58.229Z,99.99
2023-03-17T05:58:58.213Z,99.99
2023-03-17T05:59:58.201Z,99.99
2023-03-17T06:00:58.197Z,99.71
2023-03-17T06:01:58.163Z,99.99
2023-03-17T06:02:59.138Z,99.99
2023-03-17T06:03:58.211Z,99.99
2023-03-17T06:04:58.217Z,99.92
2023-03-17T06:05:58.130Z,99.99
2023-03-17T06:06:58.128Z,99.99
2023-03-17T06:07:58.701Z,99.98
2023-03-17T06:08:58.417Z,99.98
2023-03-17T06:09:58.234Z,99.93
2023-03-17T06:10:58.117Z,99.99
2023-03-17T06:11:58.130Z,99.71
2023-03-17T06:12:58.177Z,97.33
2023-03-17T06:13:59.010Z,96.61
2023-03-17T06:14:58.086Z,93.62
2023-03-17T06:15:58.280Z,90.56
2023-03-17T06:16:58.055Z,89.89
2023-03-17T06:17:58.080Z,89.13
2023-03-17T06:18:58.691Z,89.03
2023-03-17T06:19:58.061Z,88.40
2023-03-17T06:20:58.095Z,88.05
2023-03-17T06:21:58.035Z,87.32
2023-03-17T06:23:04.585Z,87.07
2023-03-17T06:24:00.019Z,85.11
2023-03-17T06:24:58.045Z,85.31
2023-03-17T06:25:58.986Z,84.42
2023-03-17T06:26:57.989Z,85.56
2023-03-17T06:27:57.997Z,85.31
2023-03-17T06:28:57.962Z,84.86
2023-03-17T06:29:58.040Z,84.23
2023-03-17T06:30:57.960Z,83.78
2023-03-17T06:32:09.234Z,83.16
2023-03-17T06:32:59.959Z,82.44
2023-03-17T06:33:57.961Z,82.79
2023-03-17T06:34:57.914Z,83.10
2023-03-17T06:35:57.936Z,84.07
2023-03-17T06:36:57.888Z,84.11
2023-03-17T06:37:57.943Z,84.36
2023-03-17T06:38:57.944Z,84.88
2023-03-17T06:39:57.902Z,85.36
2023-03-17T06:40:57.841Z,86.41
2023-03-17T06:41:57.873Z,87.24
2023-03-17T06:42:57.855Z,86.82
2023-03-17T06:43:57.868Z,87.09
2023-03-17T06:44:57.819Z,87.37
2023-03-17T06:45:57.816Z,86.47
2023-03-17T06:46:57.825Z,86.29
2023-03-17T06:47:57.816Z,85.48
2023-03-17T06:48:57.812Z,83.58
2023-03-17T06:49:57.826Z,83.62
2023-03-17T06:50:57.765Z,84.31
2023-03-17T06:51:57.769Z,86.19
2023-03-17T06:52:57.780Z,86.99
2023-03-17T06:53:57.772Z,86.78
2023-03-17T06:54:57.761Z,85.95
2023-03-17T06:55:57.779Z,86.36
2023-03-17T06:56:57.739Z,87.09
2023-03-17T06:57:57.768Z,86.36
2023-03-17T06:58:57.739Z,87.37
2023-03-17T06:59:57.734Z,86.66
2023-03-17T07:00:57.739Z,85.50
2023-03-17T07:01:57.802Z,83.36
2023-03-17T07:02:57.748Z,82.01
2023-03-17T07:03:57.732Z,81.67
2023-03-17T07:04:57.755Z,80.39
2023-03-17T07:05:58.648Z,80.53
2023-03-17T07:06:57.710Z,80.32
2023-03-17T07:07:57.656Z,79.97
2023-03-17T07:08:57.673Z,80.15
2023-03-17T07:09:57.658Z,80.02
2023-03-17T07:10:57.629Z,82.13
2023-03-17T07:11:57.633Z,83.58
2023-03-17T07:12:58.154Z,82.75
2023-03-17T07:13:57.667Z,83.10
2023-03-17T07:14:57.624Z,84.07
2023-03-17T07:16:00.427Z,84.36
2023-03-17T07:16:58.211Z,85.64
2023-03-17T07:17:57.578Z,86.61
2023-03-17T07:18:57.583Z,87.51
2023-03-17T07:19:57.648Z,87.26
2023-03-17T07:20:57.559Z,86.91
2023-03-17T07:21:57.548Z,85.97
2023-03-17T07:22:57.556Z,85.21
2023-03-17T07:23:57.560Z,84.75
2023-03-17T07:24:57.551Z,84.13
2023-03-17T07:25:57.513Z,83.85
2023-03-17T07:26:57.530Z,83.56
2023-03-17T07:27:57.531Z,81.84
2023-03-17T07:28:57.549Z,80.00
2023-03-17T07:29:57.505Z,77.97
2023-03-17T07:30:57.513Z,76.76
2023-03-17T07:31:57.505Z,75.49
2023-03-17T07:32:57.501Z,72.14
2023-03-17T07:33:57.493Z,69.37
2023-03-17T07:34:58.442Z,68.59
2023-03-17T07:35:57.521Z,65.25
2023-03-17T07:36:57.415Z,64.23
2023-03-17T07:37:57.567Z,64.58
2023-03-17T07:38:57.392Z,64.13
2023-03-17T07:39:57.481Z,64.67
2023-03-17T07:40:57.382Z,65.08
2023-03-17T07:41:57.433Z,64.95
2023-03-17T07:42:57.370Z,64.26
2023-03-17T07:43:57.394Z,65.65
2023-03-17T07:44:57.440Z,65.75
2023-03-17T07:45:57.400Z,65.62
2023-03-17T07:46:57.352Z,65.42
2023-03-17T07:47:57.365Z,65.65
2023-03-17T07:48:57.374Z,65.96
2023-03-17T07:49:57.338Z,65.80
2023-03-17T07:50:57.308Z,65.37
2023-03-17T07:51:57.295Z,67.97
2023-03-17T07:52:57.353Z,67.90
2023-03-17T07:53:58.193Z,66.17
2023-03-17T07:54:57.288Z,65.45
2023-03-17T07:55:57.308Z,67.66
2023-03-17T07:56:57.263Z,68.65
2023-03-17T07:57:57.330Z,68.62
2023-03-17T07:58:57.333Z,68.73
2023-03-17T07:59:57.288Z,65.52
2023-03-17T08:00:57.292Z,66.41
2023-03-17T08:01:57.369Z,66.94
2023-03-17T08:03:09.267Z,67.13
2023-03-17T08:03:59.259Z,63.53
2023-03-17T08:04:57.210Z,62.98
2023-03-17T08:05:57.328Z,64.33
2023-03-17T08:06:58.206Z,63.15
2023-03-17T08:07:57.228Z,63.60
2023-03-17T08:08:57.264Z,63.04
2023-03-17T08:09:57.158Z,64.27
2023-03-17T08:10:57.196Z,63.51
2023-03-17T08:11:57.164Z,59.93
2023-03-17T08:12:57.140Z,58.45
2023-03-17T08:13:57.203Z,58.83
2023-03-17T08:14:57.126Z,57.97
2023-03-17T08:15:57.184Z,57.33
2023-03-17T08:16:57.196Z,56.92
2023-03-17T08:17:57.124Z,56.18
2023-03-17T08:18:57.114Z,56.16
2023-03-17T08:19:57.176Z,55.63
2023-03-17T08:20:57.084Z,56.49
2023-03-17T08:21:57.193Z,57.89
2023-03-17T08:22:57.185Z,57.03
2023-03-17T08:23:57.130Z,55.55
2023-03-17T08:24:57.034Z,55.10
2023-03-17T08:25:57.100Z,57.39
2023-03-17T08:26:59.620Z,59.32
2023-03-17T08:27:57.180Z,58.45
2023-03-17T08:28:57.032Z,59.35
2023-03-17T08:29:57.047Z,59.53
2023-03-17T08:30:57.151Z,58.61
2023-03-17T08:31:57.111Z,58.58
2023-03-17T08:32:57.089Z,58.64
2023-03-17T08:33:57.021Z,59.99
2023-03-17T08:34:57.015Z,60.39
2023-03-17T08:35:57.011Z,60.70
2023-03-17T08:36:56.981Z,59.70
2023-03-17T08:37:56.933Z,60.25
2023-03-17T08:38:56.976Z,62.14
2023-03-17T08:39:57.001Z,61.69
2023-03-17T08:40:56.944Z,58.50
2023-03-17T08:41:56.907Z,58.78
2023-03-17T08:42:56.965Z,57.45
2023-03-17T08:43:56.986Z,56.28
2023-03-17T08:44:56.979Z,54.38
2023-03-17T08:45:56.929Z,54.76
2023-03-17T08:46:56.889Z,54.31
2023-03-17T08:47:57.000Z,54.76
2023-03-17T08:48:56.950Z,52.89
2023-03-17T08:49:56.927Z,52.92
2023-03-17T08:50:56.867Z,54.28
2023-03-17T08:51:56.920Z,54.56
2023-03-17T08:52:56.825Z,55.98
2023-03-17T08:53:56.833Z,55.32
2023-03-17T08:54:56.828Z,55.19
2023-03-17T08:55:56.848Z,53.78
2023-03-17T08:56:56.800Z,56.23
2023-03-17T08:57:56.855Z,56.95
2023-03-17T08:58:56.813Z,58.65
2023-03-17T08:59:56.817Z,60.18
2023-03-17T09:00:56.783Z,60.11
2023-03-17T09:01:56.777Z,61.30
2023-03-17T09:02:56.836Z,59.82
2023-03-17T09:03:56.796Z,60.10
2023-03-17T09:04:56.822Z,60.52
2023-03-17T09:05:56.757Z,61.13
2023-03-17T09:07:03.316Z,62.10
2023-03-17T09:07:58.765Z,62.48
2023-03-17T09:08:56.724Z,61.94
2023-03-17T09:09:56.713Z,61.71
2023-03-17T09:10:56.690Z,61.11
2023-03-17T09:11:56.749Z,59.25
2023-03-17T09:12:56.697Z,56.71
2023-03-17T09:13:57.294Z,56.61
2023-03-17T09:14:56.651Z,56.26
2023-03-17T09:15:56.690Z,56.92
2023-03-17T09:16:56.784Z,58.49
2023-03-17T09:17:56.686Z,57.42
2023-03-17T09:18:56.634Z,58.03
2023-03-17T09:19:56.624Z,56.13
2023-03-17T09:20:56.627Z,54.99
2023-03-17T09:21:56.585Z,53.96
2023-03-17T09:22:56.626Z,54.16
2023-03-17T09:23:56.610Z,55.36
2023-03-17T09:24:56.688Z,54.16
2023-03-17T09:25:57.199Z,53.47
2023-03-17T09:26:56.860Z,54.81
2023-03-17T09:27:56.911Z,52.14
2023-03-17T09:28:56.575Z,50.65
2023-03-17T09:29:56.512Z,48.69
2023-03-17T09:30:56.575Z,48.85
2023-03-17T09:31:56.602Z,48.12
2023-03-17T09:32:56.541Z,47.38
2023-03-17T09:33:56.608Z,48.10
2023-03-17T09:34:56.511Z,46.67
2023-03-17T09:35:56.519Z,47.22
2023-03-17T09:36:56.526Z,47.38
2023-03-17T09:37:57.175Z,46.29
2023-03-17T09:38:56.508Z,47.85
2023-03-17T09:39:56.492Z,47.46
2023-03-17T09:40:56.485Z,49.52
2023-03-17T09:41:56.455Z,48.66
2023-03-17T09:42:56.419Z,50.42
2023-03-17T09:43:56.480Z,50.52
2023-03-17T09:44:56.473Z,50.75
2023-03-17T09:45:56.478Z,52.97
2023-03-17T09:46:56.484Z,53.34
2023-03-17T09:47:56.427Z,54.53
2023-03-17T09:48:56.398Z,56.21
2023-03-17T09:49:56.406Z,55.32
2023-03-17T09:50:56.428Z,54.36
2023-03-17T09:51:56.465Z,54.21
2023-03-17T09:52:57.246Z,54.66
2023-03-17T09:53:56.375Z,55.25
2023-03-17T09:54:56.373Z,55.65
2023-03-17T09:55:56.367Z,56.51
2023-03-17T09:56:56.345Z,54.94
2023-03-17T09:57:56.334Z,55.22
2023-03-17T09:58:56.307Z,54.05
2023-03-17T09:59:56.435Z,53.32
2023-03-17T10:00:57.109Z,52.41
2023-03-17T10:01:56.310Z,52.59
2023-03-17T10:02:56.308Z,51.56
2023-03-17T10:03:56.297Z,51.43
2023-03-17T10:04:56.376Z,52.39
2023-03-17T10:05:56.293Z,51.48
2023-03-17T10:06:57.112Z,52.57
2023-03-17T10:07:56.333Z,51.26
2023-03-17T10:08:56.286Z,50.93
2023-03-17T10:09:56.255Z,50.56
2023-03-17T10:10:56.366Z,50.56
2023-03-17T10:11:56.274Z,51.26
2023-03-17T10:12:56.272Z,49.95
2023-03-17T10:13:56.275Z,50.96
2023-03-17T10:14:56.244Z,51.48
2023-03-17T10:15:56.376Z,50.90
2023-03-17T10:16:56.179Z,50.80
2023-03-17T10:17:56.157Z,52.74
2023-03-17T10:18:56.180Z,52.26
2023-03-17T10:19:56.157Z,52.11
2023-03-17T10:20:56.192Z,52.72
2023-03-17T10:21:56.203Z,53.14
2023-03-17T10:22:56.155Z,52.54
2023-03-17T10:23:56.155Z,53.07
2023-03-17T10:24:56.133Z,52.76
2023-03-17T10:25:56.113Z,53.88
2023-03-17T10:26:56.154Z,53.40
2023-03-17T10:27:56.125Z,53.60
2023-03-17T10:28:56.104Z,53.32
2023-03-17T10:29:56.079Z,53.93
2023-03-17T10:30:56.053Z,53.50
2023-03-17T10:31:58.299Z,52.59
2023-03-17T10:32:57.093Z,53.30
2023-03-17T10:33:56.081Z,53.07
2023-03-17T10:34:56.045Z,52.94
2023-03-17T10:35:56.082Z,53.45
2023-03-17T10:36:56.029Z,54.16
2023-03-17T10:38:11.806Z,52.84
2023-03-17T10:38:58.000Z,52.79
2023-03-17T10:39:56.027Z,50.77
2023-03-17T10:40:56.008Z,51.37
2023-03-17T10:41:55.997Z,52.01
2023-03-17T10:42:56.001Z,51.45
2023-03-17T10:43:55.969Z,53.17
2023-03-17T10:44:55.992Z,52.51
2023-03-17T10:45:56.976Z,52.87
2023-03-17T10:46:56.056Z,52.46
2023-03-17T10:47:55.983Z,53.12
2023-03-17T10:48:55.959Z,52.54
2023-03-17T10:49:55.932Z,51.58
2023-03-17T10:50:55.912Z,50.42
2023-03-17T10:51:55.897Z,50.70
2023-03-17T10:52:55.952Z,52.09
2023-03-17T10:53:55.898Z,50.37
2023-03-17T10:54:55.901Z,50.85
2023-03-17T10:55:55.873Z,50.40
2023-03-17T10:56:57.787Z,52.67
2023-03-17T10:57:55.891Z,52.16
2023-03-17T10:58:55.947Z,52.39
2023-03-17T10:59:56.649Z,51.86
2023-03-17T11:00:55.884Z,52.89
2023-03-17T11:01:55.851Z,52.99
2023-03-17T11:02:55.853Z,55.11
2023-03-17T11:03:56.785Z,54.28
2023-03-17T11:04:55.865Z,54.56
2023-03-17T11:05:55.833Z,52.76
2023-03-17T11:06:55.927Z,53.65
2023-03-17T11:07:55.837Z,53.14
2023-03-17T11:08:55.796Z,53.38
2023-03-17T11:09:55.789Z,54.56
2023-03-17T11:10:55.757Z,53.65
2023-03-17T11:11:56.718Z,53.32
2023-03-17T11:12:55.765Z,53.05
2023-03-17T11:13:56.302Z,52.44
2023-03-17T11:14:55.756Z,52.39
2023-03-17T11:15:55.798Z,52.87
2023-03-17T11:16:55.730Z,51.57
2023-03-17T11:17:55.701Z,52.08
2023-03-17T11:18:55.722Z,53.30
2023-03-17T11:19:55.707Z,52.76
2023-03-17T11:20:55.695Z,50.67
2023-03-17T11:21:55.673Z,51.07
2023-03-17T11:22:55.664Z,50.97
2023-03-17T11:23:56.632Z,50.16
2023-03-17T11:24:55.653Z,51.68
2023-03-17T11:25:55.675Z,51.48
2023-03-17T11:26:55.651Z,52.79
2023-03-17T11:27:56.178Z,51.28
2023-03-17T11:28:55.621Z,52.97
2023-03-17T11:29:55.644Z,53.88
2023-03-17T11:30:55.640Z,53.07
2023-03-17T11:31:55.619Z,52.69
2023-03-17T11:32:55.625Z,51.96
2023-03-17T11:33:55.561Z,52.56
2023-03-17T11:34:55.603Z,53.07
2023-03-17T11:35:55.585Z,52.76
2023-03-17T11:36:57.807Z,52.67
2023-03-17T11:37:56.577Z,51.05
2023-03-17T11:38:55.579Z,52.74
2023-03-17T11:39:55.607Z,51.53
2023-03-17T11:40:55.601Z,51.93
2023-03-17T11:41:55.529Z,52.61
2023-03-17T11:42:56.046Z,51.50
2023-03-17T11:43:55.557Z,51.43
2023-03-17T11:44:55.569Z,50.01
2023-03-17T11:45:55.606Z,50.12
2023-03-17T11:46:55.534Z,49.13
2023-03-17T11:47:56.530Z,50.24
2023-03-17T11:48:55.486Z,50.64
2023-03-17T11:49:55.596Z,51.05
2023-03-17T11:50:55.499Z,50.64
2023-03-17T11:51:55.525Z,51.32
2023-03-17T11:52:55.547Z,50.90
2023-03-17T11:53:55.475Z,51.00
2023-03-17T11:54:57.094Z,50.78
2023-03-17T11:55:56.454Z,51.00
2023-03-17T11:56:55.474Z,50.70
2023-03-17T11:57:55.469Z,51.00
2023-03-17T11:58:55.521Z,50.90
2023-03-17T11:59:55.408Z,51.20
2023-03-17T12:00:55.435Z,51.10
2023-03-17T12:01:55.424Z,51.30
2023-03-17T12:02:55.403Z,51.73
2023-03-17T12:03:55.950Z,51.00
2023-03-17T12:04:55.407Z,50.49
2023-03-17T12:05:55.369Z,51.30
2023-03-17T12:06:56.160Z,50.90
2023-03-17T12:07:56.331Z,51.71
2023-03-17T12:08:55.362Z,51.58
2023-03-17T12:09:56.317Z,50.95
2023-03-17T12:10:55.341Z,51.00
2023-03-17T12:11:55.308Z,51.30
2023-03-17T12:12:55.347Z,51.20
2023-03-17T12:13:55.308Z,51.20
2023-03-17T12:14:55.313Z,51.00
2023-03-17T12:15:55.495Z,51.20
2023-03-17T12:16:55.295Z,51.58
2023-03-17T12:17:55.325Z,52.09
2023-03-17T12:18:55.282Z,51.78
2023-03-17T12:19:55.247Z,51.58
2023-03-17T12:20:55.252Z,51.25
2023-03-17T12:21:55.256Z,50.75
2023-03-17T12:22:56.995Z,50.52
2023-03-17T12:23:57.142Z,50.52
2023-03-17T12:24:55.234Z,50.37
2023-03-17T12:25:55.294Z,50.12
2023-03-17T12:26:55.191Z,50.01
2023-03-17T12:27:55.861Z,51.12
2023-03-17T12:28:56.167Z,50.74
2023-03-17T12:29:56.205Z,51.05
2023-03-17T12:30:55.275Z,51.05
2023-03-17T12:31:55.158Z,51.05
2023-03-17T12:32:55.289Z,52.99
2023-03-17T12:33:55.182Z,52.76
2023-03-17T12:34:57.168Z,52.87
2023-03-17T12:35:56.150Z,52.64
2023-03-17T12:36:55.804Z,51.65
2023-03-17T12:37:55.184Z,50.54
2023-03-17T12:38:55.278Z,51.32
2023-03-17T12:39:55.096Z,50.95
2023-03-17T12:40:55.837Z,51.07
2023-03-17T12:41:55.151Z,53.70
2023-03-17T12:42:56.233Z,52.59
2023-03-17T12:43:55.186Z,51.35
2023-03-17T12:44:55.123Z,51.05
2023-03-17T12:45:55.102Z,51.53
2023-03-17T12:46:55.034Z,51.32
2023-03-17T12:47:55.079Z,50.84
2023-03-17T12:48:55.034Z,51.05
2023-03-17T12:49:56.076Z,50.74
2023-03-17T12:50:55.032Z,50.64
2023-03-17T12:51:55.066Z,51.05
2023-03-17T12:52:55.032Z,51.03
2023-03-17T12:53:55.071Z,51.63
2023-03-17T12:54:54.986Z,51.20
2023-03-17T12:55:54.978Z,50.19
2023-03-17T12:56:55.005Z,51.32
2023-03-17T12:57:55.261Z,50.14
2023-03-17T12:58:56.581Z,50.84
2023-03-17T12:59:55.009Z,51.63
2023-03-17T13:00:54.909Z,52.54
2023-03-17T13:01:54.978Z,51.83
2023-03-17T13:02:54.983Z,52.03
2023-03-17T13:03:54.912Z,52.64
2023-03-17T13:04:54.959Z,53.34
2023-03-17T13:05:54.951Z,51.15
2023-03-17T13:06:54.886Z,52.76
2023-03-17T13:07:54.913Z,52.89